createdAt,value
2022-12-05T00:01:42.491Z,36.60
2022-12-05T00:04:44.523Z,36.80
2022-12-05T00:07:47.821Z,38.30
2022-12-05T00:10:49.528Z,35.70
2022-12-05T00:13:53.079Z,32.90
2022-12-05T00:16:54.951Z,35.80
2022-12-05T00:19:57.153Z,32.80
2022-12-05T00:22:59.077Z,35.10
2022-12-05T00:29:06.009Z,28.10
2022-12-05T00:32:07.809Z,25.80
2022-12-05T00:38:11.069Z,26.80
2022-12-05T00:41:15.877Z,24.00
2022-12-05T00:44:17.807Z,25.50
2022-12-05T00:47:19.497Z,26.30
2022-12-05T00:53:22.949Z,25.70
2022-12-05T00:56:25.781Z,25.40
2022-12-05T00:59:27.436Z,25.80
2022-12-05T01:02:30.257Z,24.30
2022-12-05T01:05:34.502Z,25.30
2022-12-05T01:08:36.730Z,23.00
2022-12-05T01:11:41.455Z,22.20
2022-12-05T01:14:43.612Z,22.90
2022-12-05T01:20:47.663Z,22.60
2022-12-05T01:23:49.604Z,21.40
2022-12-05T01:26:51.423Z,20.90
2022-12-05T01:29:53.512Z,22.50
2022-12-05T01:35:57.114Z,19.80
2022-12-05T01:38:59.426Z,23.30
2022-12-05T01:42:01.184Z,22.10
2022-12-05T01:48:11.759Z,22.60
2022-12-05T01:51:13.732Z,24.70
2022-12-05T01:54:17.080Z,25.80
2022-12-05T01:57:18.910Z,26.10
2022-12-05T02:00:21.589Z,30.10
2022-12-05T02:03:23.397Z,29.80
2022-12-05T02:06:26.399Z,27.00
2022-12-05T02:09:28.052Z,25.30
2022-12-05T02:12:29.718Z,27.40
2022-12-05T02:15:52.335Z,25.60
2022-12-05T02:19:16.132Z,30.00
2022-12-05T02:22:30.119Z,26.30
2022-12-05T02:25:38.981Z,25.80
2022-12-05T02:29:08.726Z,25.70
2022-12-05T02:32:36.529Z,28.40
2022-12-05T02:35:50.668Z,27.90
2022-12-05T02:39:03.555Z,29.80
2022-12-05T02:42:29.275Z,30.50
2022-12-05T02:45:32.541Z,31.70
2022-12-05T02:48:35.556Z,32.10
2022-12-05T02:51:47.169Z,30.70
2022-12-05T02:54:50.145Z,32.80
2022-12-05T02:57:55.596Z,32.90
2022-12-05T03:00:58.588Z,32.20
2022-12-05T03:04:04.166Z,30.60
2022-12-05T03:07:12.143Z,31.20
2022-12-05T03:10:15.318Z,30.50
2022-12-05T03:13:25.209Z,31.00
2022-12-05T03:16:32.627Z,28.90
2022-12-05T03:19:45.932Z,29.90
2022-12-05T03:23:15.631Z,30.50
2022-12-05T03:26:39.118Z,29.40
2022-12-05T03:29:56.774Z,28.60
2022-12-05T03:33:08.307Z,28.90
2022-12-05T03:36:20.189Z,29.10
2022-12-05T03:39:24.818Z,29.00
2022-12-05T03:42:32.119Z,27.50
2022-12-05T03:45:42.732Z,25.10
2022-12-05T03:48:53.920Z,27.80
2022-12-05T03:51:58.850Z,25.90
2022-12-05T03:55:07.711Z,25.70
2022-12-05T03:58:13.004Z,30.30
2022-12-05T04:01:16.898Z,29.70
2022-12-05T04:04:26.508Z,27.30
2022-12-05T04:07:29.335Z,28.30
2022-12-05T04:10:48.557Z,28.30
2022-12-05T04:13:54.783Z,28.40
2022-12-05T04:17:06.454Z,29.50
2022-12-05T04:20:38.810Z,27.70
2022-12-05T04:23:44.799Z,26.50
2022-12-05T04:26:56.930Z,27.80
2022-12-05T04:30:03.559Z,62.20
2022-12-05T04:33:10.061Z,36.70
2022-12-05T04:36:11.627Z,35.70
2022-12-05T04:39:23.105Z,29.60
2022-12-05T04:42:27.182Z,27.50
2022-12-05T04:45:30.104Z,26.70
2022-12-05T04:48:32.766Z,28.70
2022-12-05T04:51:35.876Z,28.80
2022-12-05T04:54:50.658Z,28.80
2022-12-05T04:58:01.712Z,25.10
2022-12-05T05:01:12.107Z,26.10
2022-12-05T05:04:26.334Z,26.70
2022-12-05T05:07:28.001Z,26.80
2022-12-05T05:13:39.774Z,28.10
2022-12-05T05:16:42.476Z,26.80
2022-12-05T05:19:44.178Z,25.20
2022-12-05T05:22:48.783Z,24.00
2022-12-05T05:25:55.330Z,24.30
2022-12-05T05:28:57.996Z,22.80
2022-12-05T05:31:59.727Z,21.50
2022-12-05T05:38:03.702Z,23.10
2022-12-05T05:41:06.655Z,23.20
2022-12-05T05:44:08.271Z,24.10
2022-12-05T05:47:09.944Z,24.40
2022-12-05T05:50:16.234Z,24.00
2022-12-05T05:53:21.379Z,24.80
2022-12-05T05:56:23.216Z,23.80
2022-12-05T06:02:26.607Z,24.60
2022-12-05T06:08:33.945Z,23.40
2022-12-05T06:11:35.707Z,24.80
2022-12-05T06:14:37.466Z,22.30
2022-12-05T06:17:39.086Z,24.20
2022-12-05T06:20:40.656Z,23.80
2022-12-05T06:23:42.488Z,23.50
2022-12-05T06:29:45.988Z,21.30
2022-12-05T06:32:48.977Z,22.20
2022-12-05T06:36:05.120Z,23.70
2022-12-05T06:39:06.897Z,23.50
2022-12-05T06:45:10.556Z,23.70
2022-12-05T06:48:12.458Z,23.20
2022-12-05T06:51:16.036Z,22.90
2022-12-05T06:54:17.717Z,24.20
2022-12-05T06:57:19.408Z,23.50
2022-12-05T07:03:44.081Z,25.60
2022-12-05T07:06:50.503Z,23.80
2022-12-05T07:09:54.146Z,25.60
2022-12-05T07:12:56.688Z,25.50
2022-12-05T07:15:59.320Z,24.20
2022-12-05T07:19:01.351Z,22.80
2022-12-05T07:22:03.593Z,23.50
2022-12-05T07:25:05.620Z,25.20
2022-12-05T07:28:08.520Z,24.70
2022-12-05T07:31:12.389Z,23.10
2022-12-05T07:34:14.029Z,24.30
2022-12-05T07:37:15.676Z,22.50
2022-12-05T07:40:17.521Z,25.30
2022-12-05T07:43:19.146Z,23.60
2022-12-05T07:46:21.530Z,24.60
2022-12-05T07:49:23.176Z,26.00
2022-12-05T07:52:24.944Z,23.40
2022-12-05T07:55:27.290Z,25.30
2022-12-05T07:58:29.808Z,24.90
2022-12-05T08:01:31.674Z,24.60
2022-12-05T08:04:33.585Z,24.10
2022-12-05T08:07:35.795Z,25.40
2022-12-05T08:10:38.598Z,23.90
2022-12-05T08:16:42.354Z,24.50
2022-12-05T08:19:44.184Z,23.40
2022-12-05T08:25:47.785Z,22.90
2022-12-05T08:31:54.892Z,25.10
2022-12-05T08:34:56.574Z,24.60
2022-12-05T08:37:58.486Z,24.70
2022-12-05T08:41:09.553Z,23.50
2022-12-05T08:44:16.187Z,25.80
2022-12-05T08:47:18.157Z,25.20
2022-12-05T08:50:19.900Z,26.00
2022-12-05T08:56:27.214Z,23.50
2022-12-05T08:59:29.512Z,24.10
2022-12-05T09:02:31.853Z,22.00
2022-12-05T09:05:33.622Z,23.20
2022-12-05T09:08:35.734Z,22.00
2022-12-05T09:11:41.448Z,22.40
2022-12-05T09:14:43.178Z,21.60
2022-12-05T09:20:46.525Z,20.60
2022-12-05T09:26:50.969Z,18.90
2022-12-05T09:29:52.729Z,18.70
2022-12-05T09:32:54.865Z,18.60
2022-12-05T09:35:56.554Z,17.50
2022-12-05T09:39:04.381Z,17.80
2022-12-05T09:42:34.045Z,17.60
2022-12-05T09:45:37.826Z,17.40
2022-12-05T09:48:41.100Z,17.50
2022-12-05T09:51:45.118Z,16.60
2022-12-05T09:54:48.207Z,17.10
2022-12-05T09:57:56.962Z,17.20
2022-12-05T10:01:42.726Z,17.30
2022-12-05T10:05:15.423Z,16.10
2022-12-05T10:08:32.154Z,15.40
2022-12-05T10:12:21.952Z,16.10
2022-12-05T10:15:32.606Z,17.60
2022-12-05T10:18:41.853Z,17.70
2022-12-05T10:22:20.103Z,15.30
2022-12-05T10:25:23.198Z,15.60
2022-12-05T10:28:40.133Z,15.90
2022-12-05T10:31:43.845Z,16.00
2022-12-05T10:34:46.632Z,16.80
2022-12-05T10:37:59.656Z,14.90
2022-12-05T10:41:08.310Z,14.70
2022-12-05T10:44:10.799Z,14.60
2022-12-05T10:47:12.846Z,13.40
2022-12-05T10:50:30.505Z,14.60
2022-12-05T10:53:45.703Z,14.70
2022-12-05T10:56:49.872Z,14.30
2022-12-05T10:59:52.325Z,12.80
2022-12-05T11:02:55.019Z,13.70
2022-12-05T11:06:00.075Z,14.30
2022-12-05T11:09:18.085Z,13.00
2022-12-05T11:12:26.066Z,14.70
2022-12-05T11:15:30.498Z,14.60
2022-12-05T11:18:34.270Z,14.30
2022-12-05T11:21:42.866Z,13.80
2022-12-05T11:24:45.105Z,15.30
2022-12-05T11:27:46.860Z,15.10
2022-12-05T11:30:59.698Z,16.90
2022-12-05T11:34:23.212Z,15.60
2022-12-05T11:37:27.326Z,15.00
2022-12-05T11:40:51.073Z,14.40
2022-12-05T11:43:58.920Z,15.60
2022-12-05T11:47:28.401Z,14.60
2022-12-05T11:51:01.173Z,15.30
2022-12-05T11:54:56.322Z,15.30
2022-12-05T11:58:16.632Z,15.20
2022-12-05T12:05:07.521Z,15.90
2022-12-05T12:08:25.193Z,16.10
2022-12-05T12:11:32.655Z,16.80
2022-12-05T12:14:54.283Z,17.70
2022-12-05T12:21:39.063Z,16.20
2022-12-05T12:24:43.508Z,16.70
2022-12-05T12:28:05.551Z,18.50
2022-12-05T12:31:13.342Z,18.20
2022-12-05T12:34:49.670Z,17.00
2022-12-05T12:38:32.821Z,18.00
2022-12-05T12:41:49.971Z,17.40
2022-12-05T12:45:06.685Z,17.60
2022-12-05T12:48:47.526Z,17.70
2022-12-05T12:51:53.872Z,17.00
2022-12-05T12:55:10.948Z,17.40
2022-12-05T12:58:30.333Z,18.40
2022-12-05T13:01:39.525Z,16.40
2022-12-05T13:04:58.367Z,17.60
2022-12-05T13:08:04.723Z,16.60
2022-12-05T13:11:09.184Z,18.10
2022-12-05T13:14:17.916Z,18.10
2022-12-05T13:17:21.024Z,19.50
2022-12-05T13:20:26.105Z,20.60
2022-12-05T13:23:30.582Z,18.80
2022-12-05T13:26:36.709Z,18.80
2022-12-05T13:29:47.675Z,19.50
2022-12-05T13:32:56.785Z,20.00
2022-12-05T13:36:24.485Z,20.50
2022-12-05T13:39:44.970Z,18.70
2022-12-05T13:42:48.186Z,19.00
2022-12-05T13:46:03.335Z,20.40
2022-12-05T13:49:17.354Z,21.20
2022-12-05T13:52:26.558Z,22.10
2022-12-05T13:55:37.534Z,18.40
2022-12-05T13:58:48.789Z,19.00
2022-12-05T14:01:55.816Z,17.00
2022-12-05T14:04:58.185Z,29.60
2022-12-05T14:08:03.819Z,21.00
2022-12-05T14:11:09.475Z,20.00
2022-12-05T14:14:11.201Z,22.40
2022-12-05T14:17:14.260Z,21.50
2022-12-05T14:20:15.981Z,67.90
2022-12-05T14:23:31.519Z,25.50
2022-12-05T14:26:58.367Z,60.20
2022-12-05T14:30:20.389Z,29.10
2022-12-05T14:33:22.964Z,24.40
2022-12-05T14:36:30.976Z,24.70
2022-12-05T14:39:42.080Z,26.20
2022-12-05T14:42:44.568Z,34.80
2022-12-05T14:45:52.562Z,39.40
2022-12-05T14:48:56.249Z,55.20
2022-12-05T14:51:58.095Z,51.50
2022-12-05T14:55:12.044Z,38.30
2022-12-05T14:58:20.922Z,39.30
2022-12-05T15:01:26.659Z,34.90
2022-12-05T15:04:36.457Z,48.90
2022-12-05T15:07:39.125Z,47.50
2022-12-05T15:10:43.126Z,49.40
2022-12-05T15:13:44.820Z,51.10
2022-12-05T15:19:59.530Z,25.00
2022-12-05T15:23:01.345Z,25.60
2022-12-05T15:29:28.274Z,37.40
2022-12-05T15:32:30.288Z,31.10
2022-12-05T15:41:35.621Z,37.30
2022-12-05T15:44:38.454Z,33.00
2022-12-05T15:47:45.256Z,31.10
2022-12-05T15:50:51.335Z,32.10
2022-12-05T15:53:59.878Z,36.60
2022-12-05T15:57:16.367Z,36.90
2022-12-05T16:00:19.771Z,35.20
2022-12-05T16:03:28.683Z,47.60
2022-12-05T16:06:49.991Z,61.70
2022-12-05T16:09:56.310Z,49.80
2022-12-05T16:13:07.386Z,55.70
2022-12-05T16:16:13.531Z,50.20
2022-12-05T16:19:17.877Z,45.50
2022-12-05T16:22:23.728Z,50.40
2022-12-05T16:25:30.396Z,44.00
2022-12-05T16:28:33.081Z,43.90
2022-12-05T16:31:34.988Z,44.90
2022-12-05T16:34:36.768Z,42.10
2022-12-05T16:40:46.240Z,69.10
2022-12-05T16:43:48.160Z,73.90
2022-12-05T16:46:50.348Z,66.10
2022-12-05T16:49:52.490Z,57.50
2022-12-05T16:53:21.588Z,51.80
2022-12-05T16:56:25.920Z,49.20
2022-12-05T16:59:38.545Z,50.90
2022-12-05T17:02:40.510Z,60.40
2022-12-05T17:05:42.369Z,56.80
2022-12-05T17:11:47.390Z,37.70
2022-12-05T17:14:49.684Z,41.30
2022-12-05T17:17:51.484Z,44.00
2022-12-05T17:20:55.095Z,43.50
2022-12-05T17:23:57.415Z,45.40
2022-12-05T17:26:59.078Z,39.60
2022-12-05T17:30:01.007Z,41.40
2022-12-05T17:33:02.911Z,50.80
2022-12-05T17:36:05.105Z,56.20
2022-12-05T17:39:06.737Z,70.60
2022-12-05T17:42:08.612Z,65.60
2022-12-05T17:45:14.818Z,61.20
2022-12-05T17:48:16.691Z,62.80
2022-12-05T17:51:19.521Z,60.50
2022-12-05T17:54:21.488Z,63.80
2022-12-05T18:00:25.357Z,72.20
2022-12-05T18:03:27.483Z,76.30
2022-12-05T18:06:29.328Z,70.80
2022-12-05T18:12:33.093Z,48.70
2022-12-05T18:15:38.040Z,38.60
2022-12-05T18:18:42.675Z,38.60
2022-12-05T18:21:47.515Z,48.10
2022-12-05T18:24:49.491Z,42.00
2022-12-05T18:31:10.636Z,47.00
2022-12-05T18:34:12.612Z,51.10
2022-12-05T18:37:16.394Z,49.30
2022-12-05T18:40:18.164Z,58.40
2022-12-05T18:46:21.730Z,50.80
2022-12-05T18:52:25.831Z,51.80
2022-12-05T18:55:57.999Z,49.60
2022-12-05T18:58:59.050Z,52.10
2022-12-05T19:02:01.100Z,61.90
2022-12-05T19:05:03.265Z,63.50
2022-12-05T19:08:05.201Z,74.40
2022-12-05T19:11:07.392Z,83.20
2022-12-05T19:14:10.401Z,72.70
2022-12-05T19:17:12.178Z,83.40
2022-12-05T19:20:14.028Z,86.40
2022-12-05T19:26:17.355Z,72.60
2022-12-05T19:32:20.608Z,68.90
2022-12-05T19:35:22.244Z,77.50
2022-12-05T19:38:24.085Z,77.20
2022-12-05T19:44:28.536Z,60.20
2022-12-05T19:50:32.893Z,42.80
2022-12-05T19:53:37.503Z,42.00
2022-12-05T19:56:39.917Z,39.50
2022-12-05T19:59:41.580Z,41.80
2022-12-05T20:05:57.984Z,41.80
2022-12-05T20:12:04.231Z,38.40
2022-12-05T20:15:06.568Z,61.40
2022-12-05T20:18:08.153Z,58.50
2022-12-05T20:21:14.390Z,47.50
2022-12-05T20:24:16.073Z,47.50
2022-12-05T20:30:19.643Z,45.70
2022-12-05T20:33:21.338Z,46.00
2022-12-05T20:36:26.042Z,49.30
2022-12-05T20:39:29.602Z,56.60
2022-12-05T20:42:31.313Z,51.60
2022-12-05T20:48:36.017Z,52.90
2022-12-05T20:51:41.060Z,52.70
2022-12-05T20:54:42.945Z,55.00
2022-12-05T20:57:44.773Z,70.10
2022-12-05T21:00:46.491Z,58.10
2022-12-05T21:03:50.504Z,58.80
2022-12-05T21:06:52.216Z,55.10
2022-12-05T21:12:56.012Z,57.50
2022-12-05T21:15:57.906Z,56.70
2022-12-05T21:19:00.115Z,56.00
2022-12-05T21:22:01.889Z,56.50
2022-12-05T21:28:05.388Z,58.00
2022-12-05T21:34:20.593Z,57.60
2022-12-05T21:37:22.520Z,66.10
2022-12-05T21:40:24.242Z,83.00
2022-12-05T21:46:27.884Z,74.20
2022-12-05T21:49:29.622Z,72.30
2022-12-05T21:55:35.293Z,71.10
2022-12-05T21:58:42.442Z,72.10
2022-12-05T22:01:44.493Z,72.60
2022-12-05T22:04:46.316Z,75.30
2022-12-05T22:10:49.733Z,84.20
2022-12-05T22:13:52.428Z,82.60
2022-12-05T22:16:54.217Z,85.90
2022-12-05T22:19:57.550Z,83.80
2022-12-05T22:22:59.348Z,81.30
2022-12-05T22:26:03.547Z,80.30
2022-12-05T22:29:05.262Z,72.60
2022-12-05T22:32:07.168Z,73.90
2022-12-05T22:35:13.882Z,72.60
2022-12-05T22:38:16.518Z,91.00
2022-12-05T22:41:21.187Z,80.60
2022-12-05T22:44:22.996Z,80.10
2022-12-05T22:50:26.581Z,72.20
2022-12-05T22:53:28.792Z,72.50
2022-12-05T22:56:30.518Z,73.90
2022-12-05T23:02:33.802Z,73.00
2022-12-05T23:08:42.607Z,70.80
2022-12-05T23:11:44.302Z,71.20
2022-12-05T23:17:48.377Z,73.50
2022-12-05T23:20:50.455Z,68.50
2022-12-05T23:23:54.593Z,70.50
2022-12-05T23:26:56.252Z,74.40
2022-12-05T23:29:58.138Z,66.70
2022-12-05T23:33:00.086Z,78.60
2022-12-05T23:39:04.236Z,73.00
2022-12-05T23:42:09.607Z,81.60
2022-12-05T23:45:14.124Z,79.50
2022-12-05T23:48:15.741Z,78.90
2022-12-05T23:51:25.373Z,70.60
2022-12-05T23:54:27.076Z,73.30
